Latest Weather Observations for Toowoomba

IDQ60801

Issued at 3:32 pm EST Friday 6 March 2015 (issued every 30 minutes, with the page automatically refreshed every 10 minutes)

About weather observations | Map of weather stations | Latest weather observations for QLD | Other Formats
Station Details ID: 041529 Name: TOOWOOMBA AIRPORT Lat: -27.54 Lon: 151.91 Height: 640.9 m
Data from the previous 72 hours. | See also: Recent months at Toowoomba
Date/Time
EST
Temp
°C
App
Temp
°C
Dew
Point
Rel
Hum
%
Delta-T
°C
Wind Press
QNH
hPa
Press
MSL
hPa
Rain
since 9 am
mm
Dir
 
Spd
km/h
Gust
km/h
Spd
kts
Gust
kts
06/03:30pm 26.2 25.6 15.6 52 6.6 ENE 13 19 7 10 1009.5 1006.2 0.0
06/03:00pm 26.4 25.9 16.0 52 6.6 ENE 13 24 7 13 1009.7 1006.4 0.0
06/02:30pm 25.9 25.2 15.3 52 6.6 NE 13 20 7 11 1010.3 1007.0 0.0
06/02:00pm 25.6 24.1 16.2 56 5.9 ENE 19 24 10 13 1010.7 1007.4 0.0
06/01:30pm 24.7 23.5 16.2 59 5.3 E 17 24 9 13 1011.4 1008.1 0.0
06/01:00pm 25.4 24.6 17.1 60 5.3 NE 17 26 9 14 1012.1 1008.8 0.0
06/12:30pm 23.8 22.5 15.8 61 5.0 E 17 24 9 13 1012.5 1009.2 0.0
06/12:00pm 23.4 22.2 16.0 63 4.6 ENE 17 24 9 13 1012.8 1009.5 0.0
06/11:30am 23.6 22.7 16.9 66 4.2 ENE 17 26 9 14 1013.2 1010.0 0.0
06/11:00am 23.5 23.3 17.5 69 3.8 E 15 24 8 13 1013.9 1010.6 0.0
06/10:30am 21.6 19.8 15.9 70 3.5 ENE 20 30 11 16 1014.0 1010.7 0.0
06/10:09am 22.9 20.6 16.7 68 3.9 ENE 24 41 13 22 1013.9 1010.6 0.0
06/10:00am 22.2 19.6 16.9 72 3.3 E 26 35 14 19 1013.9 1010.6 0.0
06/09:56am 21.8 19.6 17.0 74 3.0 E 24 35 13 19 1013.9 1010.6 0.0
06/09:30am 20.6 17.0 16.2 76 2.7 E 30 37 16 20 1013.4 1010.2 0.0
06/09:09am 20.5 16.9 16.3 77 2.6 E 30 37 16 20 1013.3 1010.1 0.0
06/09:00am 20.5 17.3 16.3 77 2.6 E 28 37 15 20 1013.3 1010.1 0.0
06/08:30am 19.9 15.6 16.0 78 2.4 E 33 41 18 22 1013.1 1009.9 0.0
06/08:26am 20.4 16.5 16.4 78 2.5 E 32 41 17 22 1013.0 1009.8 0.0
06/08:00am 19.6 16.4 16.3 81 2.0 E 28 37 15 20 1012.7 1009.4 0.0
06/07:30am 18.7 15.3 15.8 83 1.8 E 28 35 15 19 1012.7 1009.4 0.0
06/07:00am 18.5 15.1 15.7 84 1.7 E 28 39 15 21 1012.6 1009.3 0.0
06/06:30am 18.2 13.9 15.5 84 1.6 E 32 39 17 21 1012.1 1008.8 0.0
06/06:00am 18.1 14.2 15.4 84 1.6 E 30 37 16 20 1011.7 1008.5 0.0
06/05:30am 18.2 13.9 15.3 83 1.7 E 32 41 17 22 1011.8 1008.6 0.0
06/05:00am 18.4 14.0 15.1 81 2.0 E 32 41 17 22 1011.7 1008.5 0.0
06/04:30am 18.5 14.1 15.2 81 2.0 E 32 41 17 22 1011.4 1008.1 0.0
06/04:00am 18.8 14.8 15.3 80 2.1 E 30 39 16 21 1011.6 1008.4 0.0
06/03:30am 18.8 14.4 15.1 79 2.2 E 32 41 17 22 1011.6 1008.4 0.0
06/03:00am 19.0 14.6 15.1 78 2.4 E 32 41 17 22 1011.6 1008.4 0.0
06/02:30am 19.3 15.6 15.0 76 2.6 E 28 39 15 21 1011.7 1008.5 0.0
06/02:00am 19.8 16.4 15.9 78 2.4 E 28 35 15 19 1011.7 1008.5 0.0
06/01:30am 20.2 17.0 15.4 74 2.9 E 26 37 14 20 1011.7 1008.5 0.0
06/01:00am 20.7 17.9 12.7 60 4.7 E 19 24 10 13 1012.0 1008.7 0.0
06/12:30am 18.8 17.1 11.1 61 4.3 E 11 15 6 8 1011.7 1008.5 0.0
06/12:00am 20.4 19.6 11.6 57 5.0 SSE 7 11 4 6 1012.0 1008.7 0.0
 
Date/Time
EST
Temp
°C
App
Temp
°C
Dew
Point
Rel
Hum
%
Delta-T
°C
Wind Press
QNH
hPa
Press
MSL
hPa
Rain
since 9 am
mm
Dir
 
Spd
km/h
Gust
km/h
Spd
kts
Gust
kts
05/11:30pm 21.3 18.7 10.8 51 5.9 SE 15 20 8 11 1012.3 1009.0 0.0
05/11:00pm 22.8 16.9 1.8 25 10.2 SSW 22 30 12 16 1012.0 1008.7 0.0
05/10:30pm 23.3 17.3 1.0 23 10.7 SW 22 33 12 18 1011.8 1008.6 0.0
05/10:00pm 23.4 18.4 1.1 23 10.7 SW 17 22 9 12 1012.1 1008.8 0.0
05/09:30pm 23.1 18.1 1.4 24 10.4 SW 17 19 9 10 1012.2 1008.9 0.0
05/09:00pm 23.4 19.4 2.8 26 10.2 SW 13 19 7 10 1012.0 1008.7 0.0
05/08:30pm 24.9 19.9 4.6 27 10.5 SW 20 26 11 14 1011.7 1008.5 0.0
05/08:00pm 25.2 21.3 6.9 31 9.9 SW 17 22 9 12 1011.3 1008.0 0.0
05/07:30pm 26.1 22.6 8.6 33 9.8 SW 17 22 9 12 1011.1 1007.8 0.0
05/07:00pm 26.3 22.9 9.2 34 9.7 SW 17 22 9 12 1010.8 1007.5 0.0
05/06:30pm 27.9 23.4 8.7 30 10.8 SW 22 28 12 15 1010.5 1007.2 0.0
05/06:00pm 29.0 24.3 9.2 29 11.3 WSW 24 32 13 17 1010.0 1006.7 0.0
05/05:30pm 30.3 24.3 8.7 26 12.3 WSW 30 39 16 21 1009.8 1006.5 0.0
05/05:00pm 31.0 24.4 8.7 25 12.8 WSW 33 44 18 24 1009.5 1006.2 0.0
05/04:30pm 32.2 25.9 9.1 24 13.4 WSW 32 43 17 23 1009.1 1005.8 0.0
05/04:09pm 32.4 26.5 9.2 24 13.5 SW 30 48 16 26 1008.8 1005.5 0.0
05/04:00pm 32.5 26.3 9.3 24 13.5 WSW 32 43 17 23 1008.9 1005.6 0.0
05/03:50pm 32.9 27.0 10.3 25 13.4 WSW 32 50 17 27 1008.9 1005.6 0.0
05/03:30pm 33.1 27.5 11.6 27 13.0 WSW 32 41 17 22 1008.9 1005.6 0.0
05/03:00pm 32.9 27.0 10.3 25 13.4 W 32 44 17 24 1009.1 1005.8 0.0
05/02:31pm 33.2 27.9 9.9 24 13.7 W 28 46 15 25 1009.3 1006.0 0.0
05/02:30pm 33.1 28.0 9.2 23 13.9 W 26 46 14 25 1009.3 1006.0 0.0
05/02:00pm 33.2 28.5 10.5 25 13.5 WSW 26 43 14 23 1009.9 1006.6 0.0
05/01:30pm 32.9 28.4 12.5 29 12.5 W 28 46 15 25 1010.3 1007.0 0.0
05/01:26pm 32.7 28.3 12.9 30 12.2 W 28 46 15 25 1010.1 1006.9 0.0
05/01:00pm 32.4 27.9 12.6 30 12.1 WSW 28 39 15 21 1010.8 1007.5 0.0
05/12:30pm 31.7 27.8 15.6 37 10.3 WNW 30 43 16 23 1011.2 1007.9 0.0
05/12:00pm 31.9 29.7 17.0 41 9.7 W 24 39 13 21 1011.4 1008.1 0.0
05/11:30am 31.2 28.3 17.1 42 9.2 WNW 28 39 15 21 1012.0 1008.7 0.0
05/11:00am 29.9 26.9 16.7 45 8.5 W 28 37 15 20 1012.5 1009.2 0.0
05/10:30am 29.2 26.2 16.7 46 8.0 WNW 28 39 15 21 1012.7 1009.4 0.0
05/10:00am 28.3 25.1 16.2 47 7.7 WNW 28 41 15 22 1013.0 1009.8 0.0
05/09:30am 27.1 24.0 17.6 56 6.1 NW 30 41 16 22 1013.2 1010.0 0.0
05/09:00am 26.0 24.0 18.4 63 5.0 WNW 26 33 14 18 1013.6 1010.3 0.0
05/08:30am 24.5 21.8 16.7 61 4.9 WNW 26 35 14 19 1013.6 1010.3 0.0
05/08:00am 23.7 22.2 17.7 69 3.8 NW 22 30 12 16 1013.7 1010.4 0.0
05/07:30am 22.8 22.0 17.0 70 3.7 WNW 17 22 9 12 1013.7 1010.4 0.0
05/07:00am 22.0 21.9 16.9 73 3.2 W 13 17 7 9 1013.7 1010.4 0.0
05/06:30am 20.6 21.6 16.8 79 2.4 WNW 7 9 4 5 1013.1 1009.9 0.0
05/06:00am 19.5 19.9 16.3 82 2.0 NNW 9 11 5 6 1012.9 1009.7 0.0
05/05:30am 19.8 19.9 16.6 82 2.0 NNW 11 13 6 7 1012.6 1009.3 0.0
05/05:00am 19.9 20.3 16.2 79 2.3 NNW 9 13 5 7 1012.5 1009.2 0.0
05/04:30am 20.2 20.3 16.4 79 2.4 NNW 11 13 6 7 1012.5 1009.2 0.0
05/04:00am 20.0 21.4 16.4 80 2.2 NNW 4 7 2 4 1012.5 1009.2 0.0
05/03:30am 19.1 19.9 17.2 89 1.2 ENE 9 9 5 5 1012.5 1009.2 0.0
05/03:00am 19.5 20.8 17.6 89 1.2 ENE 7 9 4 5 1012.6 1009.3 0.0
05/02:30am 19.5 20.4 17.6 89 1.2 E 9 11 5 6 1012.9 1009.7 0.0
05/02:00am 19.8 20.5 17.9 89 1.2 E 11 13 6 7 1013.2 1010.0 0.0
05/01:30am 20.1 20.7 17.7 86 1.5 E 11 13 6 7 1013.7 1010.4 0.0
05/01:00am 20.4 21.0 17.8 85 1.6 E 11 13 6 7 1014.0 1010.7 0.0
05/12:30am 20.5 21.1 17.7 84 1.8 E 11 13 6 7 1014.3 1011.1 0.0
05/12:00am 21.0 20.9 17.8 82 2.0 ENE 15 17 8 9 1014.6 1011.4 0.0
 
Date/Time
EST
Temp
°C
App
Temp
°C
Dew
Point
Rel
Hum
%
Delta-T
°C
Wind Press
QNH
hPa
Press
MSL
hPa
Rain
since 9 am
mm
Dir
 
Spd
km/h
Gust
km/h
Spd
kts
Gust
kts
04/11:30pm 21.2 21.5 17.8 81 2.2 E 13 15 7 8 1014.9 1011.7 0.0
04/11:00pm 21.6 21.4 17.6 78 2.5 E 15 17 8 9 1015.3 1012.0 0.0
04/10:30pm 22.4 22.0 17.1 72 3.3 ENE 15 17 8 9 1015.6 1012.3 0.0
04/10:00pm 22.9 23.2 17.1 70 3.7 E 11 15 6 8 1015.7 1012.4 0.0
04/09:30pm 22.9 22.9 17.1 70 3.7 E 13 17 7 9 1015.9 1012.7 0.0
04/09:00pm 23.3 23.0 17.3 69 3.8 E 15 17 8 9 1016.1 1012.9 0.0
04/08:30pm 23.6 23.2 17.1 67 4.1 E 15 19 8 10 1016.1 1012.9 0.0
04/08:00pm 23.8 23.5 17.3 67 4.1 E 15 19 8 10 1015.9 1012.7 0.0
04/07:30pm 24.2 23.1 17.2 65 4.5 E 19 22 10 12 1015.5 1012.2 0.0
04/07:00pm 24.5 23.4 17.2 63 4.6 E 19 22 10 12 1015.5 1012.2 0.0
04/06:30pm 24.9 23.7 17.1 62 5.0 E 19 24 10 13 1015.3 1012.0 0.0
04/06:00pm 26.0 24.7 16.8 57 5.8 E 19 22 10 12 1014.9 1011.7 0.0
04/05:30pm 27.1 25.6 16.4 52 6.8 E 19 22 10 12 1014.8 1011.6 0.0
04/05:00pm 28.1 26.7 17.0 51 7.1 E 20 24 11 13 1014.7 1011.5 0.0
04/04:30pm 28.4 27.4 16.7 49 7.5 E 17 20 9 11 1014.8 1011.6 0.0
04/04:00pm 28.5 26.8 15.8 46 8.0 E 19 22 10 12 1014.6 1011.4 0.0
04/03:30pm 28.8 27.1 15.7 45 8.3 ENE 19 24 10 13 1014.8 1011.6 0.0
04/03:00pm 28.9 28.0 15.8 45 8.3 ESE 15 20 8 11 1015.0 1011.8 0.0
04/02:30pm 28.5 28.3 16.7 48 7.6 E 13 20 7 11 1015.5 1012.2 0.0
04/02:00pm 28.0 26.3 13.5 41 8.8 E 15 22 8 12 1015.8 1012.6 0.0
04/01:30pm 28.0 27.2 15.0 45 8.1 ESE 13 17 7 9 1016.2 1013.0 0.0
04/01:00pm 27.6 27.0 15.6 48 7.5 E 13 19 7 10 1016.6 1013.4 0.0
04/12:30pm 27.0 26.8 16.6 53 6.6 ENE 13 19 7 10 1017.1 1013.8 0.0
04/12:00pm 27.0 26.6 15.1 48 7.4 E 11 19 6 10 1017.4 1014.2 0.0
04/11:30am 26.6 27.0 16.2 52 6.6 ENE 9 17 5 9 1017.8 1014.6 0.0
04/11:00am 25.9 26.3 17.3 59 5.5 ENE 11 19 6 10 1018.1 1014.9 0.0
04/10:30am 25.3 26.0 18.0 64 4.7 NE 11 17 6 9 1018.4 1015.2 0.0
04/10:00am 24.4 24.9 17.4 65 4.5 E 11 17 6 9 1018.7 1015.5 0.0
04/09:30am 23.6 23.9 17.8 70 3.7 ESE 13 17 7 9 1018.7 1015.5 0.0
04/09:00am 22.6 22.6 17.3 72 3.4 E 13 17 7 9 1018.4 1015.2 0.0
04/08:30am 21.4 20.9 16.8 75 2.9 NE 15 20 8 11 1018.6 1015.4 0.0
04/08:00am 21.0 20.5 17.0 78 2.5 ENE 15 19 8 10 1018.3 1015.1 0.0
04/07:30am 20.1 20.0 16.9 82 2.0 ENE 13 17 7 9 1018.1 1014.9 0.0
04/07:00am 19.4 19.9 17.5 89 1.2 ENE 11 20 6 11 1017.8 1014.6 0.0
04/06:30am 18.1 17.3 17.1 94 0.6 NE 17 22 9 12 1017.3 1014.1 0.0
04/06:00am 17.8 16.5 17.2 96 0.4 ENE 20 24 11 13 1016.9 1013.6 0.0
04/05:30am 17.9 17.1 17.1 95 0.5 ENE 17 24 9 13 1016.7 1013.5 0.0
04/05:00am 18.1 17.5 17.5 96 0.4 ENE 17 22 9 12 1016.5 1013.3 0.0
04/04:36am 18.0 16.9 17.4 96 0.4 ENE 19 24 10 13 1016.3 1013.1 0.0
04/04:30am 17.9 17.2 17.3 96 0.4 ENE 17 22 9 12 1016.3 1013.1 0.0
04/04:00am 17.8 17.3 17.0 95 0.5 E 15 19 8 10 1016.2 1013.0 0.0
04/03:51am 17.8 17.7 17.0 95 0.5 E 13 17 7 9 1016.3 1013.1 0.0
04/03:35am 17.9 17.5 17.1 95 0.5 E 15 22 8 12 1016.2 1013.0 0.0
04/03:30am 17.9 17.2 17.3 96 0.4 E 17 22 9 12 1016.3 1013.1 0.0
04/03:11am 18.1 16.1 17.3 95 0.5 E 24 32 13 17 1016.2 1013.0 0.0
04/03:00am 18.2 15.7 17.2 94 0.6 E 26 33 14 18 1016.2 1013.0 0.0
04/02:30am 18.3 15.5 17.3 94 0.6 E 28 35 15 19 1016.4 1013.2 0.0
04/02:00am 18.4 15.6 17.4 94 0.6 E 28 35 15 19 1017.0 1013.7 0.0
04/01:30am 18.5 15.7 17.3 93 0.7 E 28 35 15 19 1017.4 1014.2 0.0
04/01:00am 18.7 16.3 17.4 92 0.8 E 26 33 14 18 1018.0 1014.8 0.0
04/12:36am 18.6 15.5 17.4 93 0.8 E 30 35 16 19 1018.3 1015.1 0.0
04/12:30am 18.6 15.8 17.3 92 0.8 E 28 35 15 19 1018.3 1015.1 0.0
04/12:00am 18.8 16.1 17.5 92 0.8 E 28 35 15 19 1018.7 1015.5 0.0
 
Date/Time
EST
Temp
°C
App
Temp
°C
Dew
Point
Rel
Hum
%
Delta-T
°C
Wind Press
QNH
hPa
Press
MSL
hPa
Rain
since 9 am
mm
Dir
 
Spd
km/h
Gust
km/h
Spd
kts
Gust
kts
03/11:30pm 19.0 16.4 17.7 92 0.8 E 28 33 15 18 1018.8 1015.6 0.0
03/11:00pm 19.3 15.9 17.8 91 0.9 E 32 43 17 23 1018.8 1015.6 0.0
03/10:30pm 19.6 16.6 17.7 89 1.2 E 30 39 16 21 1018.7 1015.5 0.0
03/10:00pm 19.9 16.9 17.7 87 1.4 E 30 37 16 20 1018.7 1015.5 0.0
03/09:30pm 20.3 17.3 17.7 85 1.6 E 30 35 16 19 1018.7 1015.5 0.0
03/09:00pm 20.6 17.8 17.4 82 2.0 E 28 35 15 19 1018.6 1015.4 0.0
03/08:30pm 21.3 19.2 17.1 77 2.6 E 24 30 13 16 1018.3 1015.1 0.0
03/08:00pm 22.5 20.8 16.3 68 3.9 E 20 30 11 16 1017.9 1014.7 0.0
03/07:30pm 22.9 21.4 16.2 66 4.2 E 19 24 10 13 1017.7 1014.5 0.0
03/07:00pm 23.4 22.2 16.2 64 4.5 E 17 24 9 13 1017.4 1014.2 0.0
03/06:30pm 23.6 21.8 16.1 62 4.7 ENE 20 26 11 14 1017.4 1014.2 0.0
03/06:00pm 24.3 22.1 16.0 60 5.2 E 22 28 12 15 1017.1 1013.8 0.0
03/05:30pm 25.0 22.9 16.2 58 5.5 ENE 22 32 12 17 1017.0 1013.7 0.0
03/05:00pm 25.5 23.5 16.4 57 5.7 E 22 30 12 16 1016.7 1013.5 0.0
03/04:30pm 25.6 23.9 16.2 56 5.9 E 20 30 11 16 1016.7 1013.5 0.0
03/04:00pm 26.1 24.8 16.9 57 5.9 E 19 26 10 14 1016.6 1013.4 0.0

Other Formats:

Comma delimited format used in spreadsheet applications
http://www.bom.gov.au/fwo/IDQ60801/IDQ60801.95551.axf

JavaScript Object Notation format (JSON) in row-major order
http://www.bom.gov.au/fwo/IDQ60801/IDQ60801.95551.json